HTDA

Julius Nyerere International Airport

Dar es Salaam, Tanzania
HTDA 161700Z 1618/1724 12005KT 9999 FEW020 BECMG 1707/1710 20015KT 9999 BKN012
Issued Valid From Valid To
Jul-16 @ 17:00 UTC
(3 hours ago)
Jul-16 @ 18:00 UTC
(2 hours ago)
Jul-18 @ 00:00 UTC
(-1 days ago)
Jul-16 @ 18:00 to Jul-17 @ 07:00
HTDA 161700Z 1618/1724 12005KT 9999 FEW020
Wind Visibility Clouds
120° at 5 knots 10,000+ meters
  • Few at 2,000' AGL
Becoming Jul-17 @ 07:00 to Jul-18 @ 00:00
BECMG 1707/1710 20015KT 9999 BKN012
Wind Visibility Clouds
200° at 15 knots 10,000+ meters
  • Broken at 1,200' AGL
HTDA 161700Z 1618/1724 12005KT 9999 FEW020 BECMG 1707/1710 20015KT 9999 BKN012
Issued Jul-16 @ 17:00 UTC
(3 hours ago)
Valid From Jul-16 @ 18:00 UTC
(2 hours ago)
Valid To Jul-18 @ 00:00 UTC
(-1 days ago)
Jul-16 @ 18:00 - Jul-17 @ 07:00
Wind Visibility
120° at 5 knots 10,000+ meters
Clouds
  • Few at 2,000' AGL
Becoming Jul-17 @ 07:00 - Jul-18 @ 00:00
Wind Visibility
200° at 15 knots 10,000+ meters
Clouds
  • Broken at 1,200' AGL